sensor_id;sensor_type;location;lat;lon;timestamp;P1;durP1;ratioP1;P2;durP2;ratioP2
2452;SDS011;63678;47.994;7.854;2023-04-24T00:02:04;6.93;;;2.20;;
2452;SDS011;63678;47.994;7.854;2023-04-24T00:04:39;3.75;;;1.67;;
2452;SDS011;63678;47.994;7.854;2023-04-24T00:07:16;4.20;;;2.17;;
2452;SDS011;63678;47.994;7.854;2023-04-24T00:09:48;4.88;;;1.60;;
2452;SDS011;63678;47.994;7.854;2023-04-24T00:12:22;3.20;;;1.70;;
2452;SDS011;63678;47.994;7.854;2023-04-24T00:14:54;4.82;;;1.58;;
2452;SDS011;63678;47.994;7.854;2023-04-24T00:17:26;4.45;;;1.70;;
2452;SDS011;63678;47.994;7.854;2023-04-24T00:19:59;4.85;;;1.77;;
2452;SDS011;63678;47.994;7.854;2023-04-24T00:22:33;4.90;;;2.00;;
2452;SDS011;63678;47.994;7.854;2023-04-24T00:25:05;4.30;;;1.65;;
2452;SDS011;63678;47.994;7.854;2023-04-24T00:27:38;4.40;;;2.00;;
2452;SDS011;63678;47.994;7.854;2023-04-24T00:30:11;4.03;;;1.75;;
2452;SDS011;63678;47.994;7.854;2023-04-24T00:32:43;3.40;;;1.70;;
2452;SDS011;63678;47.994;7.854;2023-04-24T00:35:15;3.85;;;1.60;;
2452;SDS011;63678;47.994;7.854;2023-04-24T00:37:48;4.57;;;1.95;;
2452;SDS011;63678;47.994;7.854;2023-04-24T00:40:21;4.13;;;1.60;;
2452;SDS011;63678;47.994;7.854;2023-04-24T00:42:53;4.05;;;1.60;;
2452;SDS011;63678;47.994;7.854;2023-04-24T00:45:26;3.58;;;1.80;;
2452;SDS011;63678;47.994;7.854;2023-04-24T00:47:58;4.28;;;1.60;;
2452;SDS011;63678;47.994;7.854;2023-04-24T00:50:32;3.65;;;1.67;;
2452;SDS011;63678;47.994;7.854;2023-04-24T00:53:07;4.32;;;1.60;;
2452;SDS011;63678;47.994;7.854;2023-04-24T00:55:40;4.35;;;2.08;;
2452;SDS011;63678;47.994;7.854;2023-04-24T00:58:12;4.85;;;1.77;;
2452;SDS011;63678;47.994;7.854;2023-04-24T01:00:45;4.10;;;1.80;;
2452;SDS011;63678;47.994;7.854;2023-04-24T01:03:17;4.53;;;1.88;;
2452;SDS011;63678;47.994;7.854;2023-04-24T01:05:54;3.83;;;1.80;;
2452;SDS011;63678;47.994;7.854;2023-04-24T01:08:28;3.20;;;1.58;;
2452;SDS011;63678;47.994;7.854;2023-04-24T01:11:00;4.07;;;1.60;;
2452;SDS011;63678;47.994;7.854;2023-04-24T01:13:36;4.38;;;1.73;;
2452;SDS011;63678;47.994;7.854;2023-04-24T01:16:09;3.53;;;1.65;;
2452;SDS011;63678;47.994;7.854;2023-04-24T01:18:41;3.58;;;1.88;;
2452;SDS011;63678;47.994;7.854;2023-04-24T01:21:15;4.55;;;1.70;;
2452;SDS011;63678;47.994;7.854;2023-04-24T01:23:48;5.47;;;1.65;;
2452;SDS011;63678;47.994;7.854;2023-04-24T01:26:22;3.58;;;2.00;;
2452;SDS011;63678;47.994;7.854;2023-04-24T01:28:57;3.40;;;1.75;;
2452;SDS011;63678;47.994;7.854;2023-04-24T01:31:29;5.18;;;1.90;;
2452;SDS011;63678;47.994;7.854;2023-04-24T01:34:03;3.95;;;1.58;;
2452;SDS011;63678;47.994;7.854;2023-04-24T01:36:35;3.15;;;1.50;;
2452;SDS011;63678;47.994;7.854;2023-04-24T01:39:09;5.10;;;1.30;;
2452;SDS011;63678;47.994;7.854;2023-04-24T01:41:43;6.25;;;1.55;;
2452;SDS011;63678;47.994;7.854;2023-04-24T01:44:15;4.82;;;1.90;;
2452;SDS011;63678;47.994;7.854;2023-04-24T01:46:49;4.40;;;1.60;;
2452;SDS011;63678;47.994;7.854;2023-04-24T01:49:22;4.40;;;1.80;;
2452;SDS011;63678;47.994;7.854;2023-04-24T01:51:55;3.35;;;1.50;;
2452;SDS011;63678;47.994;7.854;2023-04-24T01:54:28;5.20;;;2.00;;
2452;SDS011;63678;47.994;7.854;2023-04-24T01:57:07;4.80;;;1.83;;
2452;SDS011;63678;47.994;7.854;2023-04-24T02:00:03;3.95;;;1.60;;
2452;SDS011;63678;47.994;7.854;2023-04-24T02:02:43;4.75;;;2.00;;
2452;SDS011;63678;47.994;7.854;2023-04-24T02:05:19;5.82;;;1.67;;
2452;SDS011;63678;47.994;7.854;2023-04-24T02:07:51;5.10;;;1.55;;
2452;SDS011;63678;47.994;7.854;2023-04-24T02:10:24;3.90;;;1.85;;
2452;SDS011;63678;47.994;7.854;2023-04-24T02:12:56;3.40;;;1.40;;
2452;SDS011;63678;47.994;7.854;2023-04-24T02:15:31;4.00;;;1.98;;
2452;SDS011;63678;47.994;7.854;2023-04-24T02:18:03;4.57;;;1.50;;
2452;SDS011;63678;47.994;7.854;2023-04-24T02:20:38;5.18;;;1.90;;
2452;SDS011;63678;47.994;7.854;2023-04-24T02:23:10;4.93;;;1.67;;
2452;SDS011;63678;47.994;7.854;2023-04-24T02:25:44;5.18;;;1.60;;
2452;SDS011;63678;47.994;7.854;2023-04-24T02:28:17;3.70;;;1.60;;
2452;SDS011;63678;47.994;7.854;2023-04-24T02:30:49;7.97;;;1.77;;
2452;SDS011;63678;47.994;7.854;2023-04-24T02:33:26;4.40;;;1.60;;
2452;SDS011;63678;47.994;7.854;2023-04-24T02:35:58;4.10;;;1.83;;
2452;SDS011;63678;47.994;7.854;2023-04-24T02:38:31;7.40;;;2.05;;
2452;SDS011;63678;47.994;7.854;2023-04-24T02:41:04;4.68;;;1.88;;
2452;SDS011;63678;47.994;7.854;2023-04-24T02:43:37;4.18;;;1.63;;
2452;SDS011;63678;47.994;7.854;2023-04-24T02:46:10;7.20;;;2.33;;
2452;SDS011;63678;47.994;7.854;2023-04-24T02:48:43;6.72;;;2.35;;
2452;SDS011;63678;47.994;7.854;2023-04-24T02:51:15;4.85;;;2.05;;
2452;SDS011;63678;47.994;7.854;2023-04-24T02:53:48;4.93;;;1.73;;
2452;SDS011;63678;47.994;7.854;2023-04-24T02:56:20;3.25;;;1.50;;
2452;SDS011;63678;47.994;7.854;2023-04-24T02:58:52;4.38;;;2.13;;
2452;SDS011;63678;47.994;7.854;2023-04-24T03:01:25;3.97;;;1.50;;
2452;SDS011;63678;47.994;7.854;2023-04-24T03:03:57;4.65;;;1.80;;
2452;SDS011;63678;47.994;7.854;2023-04-24T03:06:30;3.30;;;1.60;;
2452;SDS011;63678;47.994;7.854;2023-04-24T03:09:04;5.18;;;2.05;;
2452;SDS011;63678;47.994;7.854;2023-04-24T03:11:36;4.13;;;1.70;;
2452;SDS011;63678;47.994;7.854;2023-04-24T03:14:12;4.22;;;1.60;;
2452;SDS011;63678;47.994;7.854;2023-04-24T03:16:44;4.50;;;2.13;;
2452;SDS011;63678;47.994;7.854;2023-04-24T03:19:17;3.40;;;1.80;;
2452;SDS011;63678;47.994;7.854;2023-04-24T03:22:04;5.18;;;1.60;;
2452;SDS011;63678;47.994;7.854;2023-04-24T03:24:37;4.32;;;1.85;;
2452;SDS011;63678;47.994;7.854;2023-04-24T03:27:09;3.50;;;1.90;;
2452;SDS011;63678;47.994;7.854;2023-04-24T03:29:58;5.40;;;1.77;;
2452;SDS011;63678;47.994;7.854;2023-04-24T03:32:50;3.92;;;1.60;;
2452;SDS011;63678;47.994;7.854;2023-04-24T03:35:28;4.25;;;1.60;;
2452;SDS011;63678;47.994;7.854;2023-04-24T03:38:04;4.03;;;1.83;;
2452;SDS011;63678;47.994;7.854;2023-04-24T03:40:46;5.80;;;1.88;;
2452;SDS011;63678;47.994;7.854;2023-04-24T03:43:32;4.22;;;2.13;;
2452;SDS011;63678;47.994;7.854;2023-04-24T03:46:06;3.55;;;1.95;;
2452;SDS011;63678;47.994;7.854;2023-04-24T03:48:45;4.45;;;2.03;;
2452;SDS011;63678;47.994;7.854;2023-04-24T03:51:21;6.20;;;2.08;;
2452;SDS011;63678;47.994;7.854;2023-04-24T03:53:57;3.47;;;1.90;;
2452;SDS011;63678;47.994;7.854;2023-04-24T03:56:32;3.85;;;2.05;;
2452;SDS011;63678;47.994;7.854;2023-04-24T03:59:05;4.60;;;2.63;;
2452;SDS011;63678;47.994;7.854;2023-04-24T04:01:39;3.85;;;1.80;;
2452;SDS011;63678;47.994;7.854;2023-04-24T04:04:18;4.07;;;1.90;;
2452;SDS011;63678;47.994;7.854;2023-04-24T04:06:50;4.63;;;2.10;;
2452;SDS011;63678;47.994;7.854;2023-04-24T04:09:24;4.10;;;2.20;;
2452;SDS011;63678;47.994;7.854;2023-04-24T04:11:56;3.80;;;1.90;;
2452;SDS011;63678;47.994;7.854;2023-04-24T04:14:29;4.90;;;2.00;;
2452;SDS011;63678;47.994;7.854;2023-04-24T04:17:02;4.53;;;2.20;;
2452;SDS011;63678;47.994;7.854;2023-04-24T04:19:34;4.90;;;2.03;;
2452;SDS011;63678;47.994;7.854;2023-04-24T04:22:07;3.83;;;2.35;;
2452;SDS011;63678;47.994;7.854;2023-04-24T04:24:45;4.03;;;2.10;;
2452;SDS011;63678;47.994;7.854;2023-04-24T04:27:18;5.97;;;2.30;;
2452;SDS011;63678;47.994;7.854;2023-04-24T04:30:01;4.75;;;2.22;;
2452;SDS011;63678;47.994;7.854;2023-04-24T04:32:44;7.93;;;2.58;;
2452;SDS011;63678;47.994;7.854;2023-04-24T04:35:17;7.18;;;2.25;;
2452;SDS011;63678;47.994;7.854;2023-04-24T04:37:50;5.32;;;2.40;;
2452;SDS011;63678;47.994;7.854;2023-04-24T04:40:43;4.90;;;2.20;;
2452;SDS011;63678;47.994;7.854;2023-04-24T04:43:16;4.88;;;2.25;;
2452;SDS011;63678;47.994;7.854;2023-04-24T04:45:54;4.75;;;2.22;;
2452;SDS011;63678;47.994;7.854;2023-04-24T04:48:33;4.07;;;2.50;;
2452;SDS011;63678;47.994;7.854;2023-04-24T04:51:08;6.72;;;2.53;;
2452;SDS011;63678;47.994;7.854;2023-04-24T04:53:41;5.20;;;2.15;;
2452;SDS011;63678;47.994;7.854;2023-04-24T04:56:14;4.18;;;2.30;;
2452;SDS011;63678;47.994;7.854;2023-04-24T04:58:49;6.68;;;2.30;;
2452;SDS011;63678;47.994;7.854;2023-04-24T05:01:22;7.07;;;2.80;;
2452;SDS011;63678;47.994;7.854;2023-04-24T05:03:56;5.20;;;2.88;;
2452;SDS011;63678;47.994;7.854;2023-04-24T05:06:30;4.35;;;2.67;;
2452;SDS011;63678;47.994;7.854;2023-04-24T05:09:03;6.00;;;2.50;;
2452;SDS011;63678;47.994;7.854;2023-04-24T05:11:42;4.65;;;2.38;;
2452;SDS011;63678;47.994;7.854;2023-04-24T05:14:15;6.05;;;2.55;;
2452;SDS011;63678;47.994;7.854;2023-04-24T05:16:49;4.80;;;2.55;;
2452;SDS011;63678;47.994;7.854;2023-04-24T05:19:24;5.50;;;2.60;;
2452;SDS011;63678;47.994;7.854;2023-04-24T05:21:57;5.95;;;2.80;;
2452;SDS011;63678;47.994;7.854;2023-04-24T05:24:30;8.10;;;2.63;;
2452;SDS011;63678;47.994;7.854;2023-04-24T05:27:05;4.35;;;2.50;;
2452;SDS011;63678;47.994;7.854;2023-04-24T05:29:42;5.57;;;2.20;;
2452;SDS011;63678;47.994;7.854;2023-04-24T05:32:16;5.63;;;2.97;;
2452;SDS011;63678;47.994;7.854;2023-04-24T05:34:48;5.40;;;2.65;;
2452;SDS011;63678;47.994;7.854;2023-04-24T05:37:21;5.68;;;3.00;;
2452;SDS011;63678;47.994;7.854;2023-04-24T05:39:54;6.40;;;2.85;;
2452;SDS011;63678;47.994;7.854;2023-04-24T05:42:27;8.38;;;2.60;;
2452;SDS011;63678;47.994;7.854;2023-04-24T05:45:01;5.95;;;3.00;;
2452;SDS011;63678;47.994;7.854;2023-04-24T05:47:33;4.72;;;2.88;;
2452;SDS011;63678;47.994;7.854;2023-04-24T05:50:06;7.43;;;3.05;;
2452;SDS011;63678;47.994;7.854;2023-04-24T05:52:38;6.28;;;2.90;;
2452;SDS011;63678;47.994;7.854;2023-04-24T05:55:24;6.47;;;3.08;;
2452;SDS011;63678;47.994;7.854;2023-04-24T05:57:57;5.00;;;3.10;;
2452;SDS011;63678;47.994;7.854;2023-04-24T06:00:31;5.95;;;2.88;;
2452;SDS011;63678;47.994;7.854;2023-04-24T06:03:09;7.25;;;3.38;;
2452;SDS011;63678;47.994;7.854;2023-04-24T06:05:42;6.72;;;3.20;;
2452;SDS011;63678;47.994;7.854;2023-04-24T06:08:14;7.40;;;3.40;;
2452;SDS011;63678;47.994;7.854;2023-04-24T06:10:48;7.13;;;3.78;;
2452;SDS011;63678;47.994;7.854;2023-04-24T06:13:23;5.40;;;3.22;;
2452;SDS011;63678;47.994;7.854;2023-04-24T06:16:15;6.78;;;3.05;;
2452;SDS011;63678;47.994;7.854;2023-04-24T06:18:54;5.60;;;3.05;;
2452;SDS011;63678;47.994;7.854;2023-04-24T06:21:27;6.72;;;3.42;;
2452;SDS011;63678;47.994;7.854;2023-04-24T06:23:59;5.70;;;3.20;;
2452;SDS011;63678;47.994;7.854;2023-04-24T06:26:31;6.63;;;3.10;;
2452;SDS011;63678;47.994;7.854;2023-04-24T06:29:04;5.90;;;3.38;;
2452;SDS011;63678;47.994;7.854;2023-04-24T06:31:37;6.55;;;3.55;;
2452;SDS011;63678;47.994;7.854;2023-04-24T06:34:09;6.78;;;3.10;;
2452;SDS011;63678;47.994;7.854;2023-04-24T06:36:41;5.97;;;3.47;;
2452;SDS011;63678;47.994;7.854;2023-04-24T06:39:14;6.10;;;3.35;;
2452;SDS011;63678;47.994;7.854;2023-04-24T06:41:46;5.63;;;3.78;;
2452;SDS011;63678;47.994;7.854;2023-04-24T06:44:23;4.88;;;2.78;;
2452;SDS011;63678;47.994;7.854;2023-04-24T06:46:56;6.38;;;3.47;;
2452;SDS011;63678;47.994;7.854;2023-04-24T06:49:28;7.60;;;3.63;;
2452;SDS011;63678;47.994;7.854;2023-04-24T06:52:01;5.78;;;3.40;;
2452;SDS011;63678;47.994;7.854;2023-04-24T06:54:34;8.30;;;3.83;;
2452;SDS011;63678;47.994;7.854;2023-04-24T06:57:06;4.72;;;2.95;;
2452;SDS011;63678;47.994;7.854;2023-04-24T06:59:39;7.68;;;3.75;;
2452;SDS011;63678;47.994;7.854;2023-04-24T07:02:12;5.53;;;3.35;;
2452;SDS011;63678;47.994;7.854;2023-04-24T07:04:44;4.78;;;2.90;;
2452;SDS011;63678;47.994;7.854;2023-04-24T07:07:19;5.80;;;3.17;;
2452;SDS011;63678;47.994;7.854;2023-04-24T07:09:52;7.80;;;3.30;;
2452;SDS011;63678;47.994;7.854;2023-04-24T07:12:25;7.20;;;3.35;;
2452;SDS011;63678;47.994;7.854;2023-04-24T07:14:57;4.90;;;2.97;;
2452;SDS011;63678;47.994;7.854;2023-04-24T07:17:30;5.55;;;3.03;;
2452;SDS011;63678;47.994;7.854;2023-04-24T07:20:02;6.00;;;3.28;;
2452;SDS011;63678;47.994;7.854;2023-04-24T07:22:35;6.75;;;3.03;;
2452;SDS011;63678;47.994;7.854;2023-04-24T07:25:09;6.75;;;3.63;;
2452;SDS011;63678;47.994;7.854;2023-04-24T07:27:42;7.07;;;3.35;;
2452;SDS011;63678;47.994;7.854;2023-04-24T07:30:14;4.85;;;2.80;;
2452;SDS011;63678;47.994;7.854;2023-04-24T07:32:47;4.60;;;2.72;;
2452;SDS011;63678;47.994;7.854;2023-04-24T07:35:20;9.07;;;2.97;;
2452;SDS011;63678;47.994;7.854;2023-04-24T07:37:53;6.15;;;3.03;;
2452;SDS011;63678;47.994;7.854;2023-04-24T07:40:25;7.70;;;2.97;;
2452;SDS011;63678;47.994;7.854;2023-04-24T07:42:57;4.50;;;2.88;;
2452;SDS011;63678;47.994;7.854;2023-04-24T07:45:30;6.93;;;3.20;;
2452;SDS011;63678;47.994;7.854;2023-04-24T07:48:05;5.17;;;2.70;;
2452;SDS011;63678;47.994;7.854;2023-04-24T07:50:37;6.22;;;2.75;;
2452;SDS011;63678;47.994;7.854;2023-04-24T07:53:10;5.30;;;2.30;;
2452;SDS011;63678;47.994;7.854;2023-04-24T07:55:42;6.00;;;2.60;;
2452;SDS011;63678;47.994;7.854;2023-04-24T07:58:14;6.82;;;2.85;;
2452;SDS011;63678;47.994;7.854;2023-04-24T08:00:47;8.27;;;3.33;;
2452;SDS011;63678;47.994;7.854;2023-04-24T08:03:19;6.25;;;3.03;;
2452;SDS011;63678;47.994;7.854;2023-04-24T08:05:52;6.32;;;3.00;;
2452;SDS011;63678;47.994;7.854;2023-04-24T08:08:24;6.47;;;2.97;;
2452;SDS011;63678;47.994;7.854;2023-04-24T08:10:57;5.05;;;3.10;;
2452;SDS011;63678;47.994;7.854;2023-04-24T08:13:29;8.20;;;3.47;;
2452;SDS011;63678;47.994;7.854;2023-04-24T08:16:01;9.60;;;3.15;;
2452;SDS011;63678;47.994;7.854;2023-04-24T08:18:33;6.50;;;3.30;;
2452;SDS011;63678;47.994;7.854;2023-04-24T08:21:07;6.45;;;3.70;;
2452;SDS011;63678;47.994;7.854;2023-04-24T08:23:39;7.40;;;3.28;;
2452;SDS011;63678;47.994;7.854;2023-04-24T08:26:12;8.52;;;3.58;;
2452;SDS011;63678;47.994;7.854;2023-04-24T08:28:44;7.15;;;3.65;;
2452;SDS011;63678;47.994;7.854;2023-04-24T08:31:17;5.90;;;3.50;;
2452;SDS011;63678;47.994;7.854;2023-04-24T08:33:49;5.47;;;3.10;;
2452;SDS011;63678;47.994;7.854;2023-04-24T08:36:22;5.18;;;3.50;;
2452;SDS011;63678;47.994;7.854;2023-04-24T08:39:03;7.53;;;3.58;;
2452;SDS011;63678;47.994;7.854;2023-04-24T08:41:36;5.82;;;3.20;;
2452;SDS011;63678;47.994;7.854;2023-04-24T08:44:09;5.60;;;2.85;;
2452;SDS011;63678;47.994;7.854;2023-04-24T08:46:42;8.25;;;2.55;;
2452;SDS011;63678;47.994;7.854;2023-04-24T08:49:17;5.75;;;2.58;;
2452;SDS011;63678;47.994;7.854;2023-04-24T08:51:50;6.30;;;3.55;;
2452;SDS011;63678;47.994;7.854;2023-04-24T08:54:24;7.30;;;2.47;;
2452;SDS011;63678;47.994;7.854;2023-04-24T08:57:00;5.72;;;2.92;;
2452;SDS011;63678;47.994;7.854;2023-04-24T08:59:35;6.68;;;2.85;;
2452;SDS011;63678;47.994;7.854;2023-04-24T09:02:09;6.13;;;2.83;;
2452;SDS011;63678;47.994;7.854;2023-04-24T09:04:43;5.53;;;2.73;;
2452;SDS011;63678;47.994;7.854;2023-04-24T09:07:17;5.85;;;2.70;;
2452;SDS011;63678;47.994;7.854;2023-04-24T09:09:53;5.57;;;2.35;;
2452;SDS011;63678;47.994;7.854;2023-04-24T09:12:26;5.75;;;2.55;;
2452;SDS011;63678;47.994;7.854;2023-04-24T09:14:58;5.97;;;2.35;;
2452;SDS011;63678;47.994;7.854;2023-04-24T09:17:32;5.50;;;2.57;;
2452;SDS011;63678;47.994;7.854;2023-04-24T09:20:06;4.78;;;2.60;;
2452;SDS011;63678;47.994;7.854;2023-04-24T09:22:39;5.40;;;2.28;;
2452;SDS011;63678;47.994;7.854;2023-04-24T09:25:11;6.47;;;2.70;;
2452;SDS011;63678;47.994;7.854;2023-04-24T09:27:45;6.53;;;2.72;;
2452;SDS011;63678;47.994;7.854;2023-04-24T09:30:20;5.80;;;2.90;;
2452;SDS011;63678;47.994;7.854;2023-04-24T09:33:13;4.72;;;2.22;;
2452;SDS011;63678;47.994;7.854;2023-04-24T09:35:50;6.03;;;2.10;;
2452;SDS011;63678;47.994;7.854;2023-04-24T09:41:08;5.90;;;2.00;;
2452;SDS011;63678;47.994;7.854;2023-04-24T09:43:45;6.60;;;2.58;;
2452;SDS011;63678;47.994;7.854;2023-04-24T09:46:18;6.70;;;2.60;;
2452;SDS011;63678;47.994;7.854;2023-04-24T09:48:50;5.00;;;2.53;;
2452;SDS011;63678;47.994;7.854;2023-04-24T09:51:32;5.90;;;2.65;;
2452;SDS011;63678;47.994;7.854;2023-04-24T09:54:41;7.22;;;2.88;;
2452;SDS011;63678;47.994;7.854;2023-04-24T09:57:08;6.65;;;2.45;;
2452;SDS011;63678;47.994;7.854;2023-04-24T09:59:45;5.40;;;2.45;;
2452;SDS011;63678;47.994;7.854;2023-04-24T10:02:18;6.07;;;2.53;;
2452;SDS011;63678;47.994;7.854;2023-04-24T10:04:56;6.72;;;3.22;;
2452;SDS011;63678;47.994;7.854;2023-04-24T10:07:32;3.72;;;2.00;;
2452;SDS011;63678;47.994;7.854;2023-04-24T10:10:25;7.17;;;2.07;;
2452;SDS011;63678;47.994;7.854;2023-04-24T10:13:00;5.07;;;2.30;;
2452;SDS011;63678;47.994;7.854;2023-04-24T10:15:55;3.72;;;1.70;;
2452;SDS011;63678;47.994;7.854;2023-04-24T10:18:32;5.15;;;1.98;;
2452;SDS011;63678;47.994;7.854;2023-04-24T10:21:06;5.32;;;1.95;;
2452;SDS011;63678;47.994;7.854;2023-04-24T10:23:39;4.77;;;2.10;;
2452;SDS011;63678;47.994;7.854;2023-04-24T10:26:15;4.85;;;2.00;;
2452;SDS011;63678;47.994;7.854;2023-04-24T10:28:49;4.38;;;2.00;;
2452;SDS011;63678;47.994;7.854;2023-04-24T10:31:24;4.47;;;2.50;;
2452;SDS011;63678;47.994;7.854;2023-04-24T10:33:59;4.97;;;2.00;;
2452;SDS011;63678;47.994;7.854;2023-04-24T10:36:36;6.83;;;2.40;;
2452;SDS011;63678;47.994;7.854;2023-04-24T10:39:17;4.88;;;2.03;;
2452;SDS011;63678;47.994;7.854;2023-04-24T10:41:58;5.25;;;2.33;;
2452;SDS011;63678;47.994;7.854;2023-04-24T10:44:37;4.57;;;2.45;;
2452;SDS011;63678;47.994;7.854;2023-04-24T10:47:13;5.15;;;2.45;;
2452;SDS011;63678;47.994;7.854;2023-04-24T10:49:47;3.50;;;2.20;;
2452;SDS011;63678;47.994;7.854;2023-04-24T10:52:26;4.85;;;2.10;;
2452;SDS011;63678;47.994;7.854;2023-04-24T10:55:40;6.22;;;2.00;;
2452;SDS011;63678;47.994;7.854;2023-04-24T10:58:23;5.10;;;2.28;;
2452;SDS011;63678;47.994;7.854;2023-04-24T11:01:07;4.53;;;2.20;;
2452;SDS011;63678;47.994;7.854;2023-04-24T11:03:50;4.87;;;2.33;;
2452;SDS011;63678;47.994;7.854;2023-04-24T11:06:49;4.60;;;2.60;;
2452;SDS011;63678;47.994;7.854;2023-04-24T11:09:27;6.90;;;2.47;;
2452;SDS011;63678;47.994;7.854;2023-04-24T11:12:03;5.05;;;2.33;;
2452;SDS011;63678;47.994;7.854;2023-04-24T11:17:56;7.35;;;3.17;;
2452;SDS011;63678;47.994;7.854;2023-04-24T11:20:28;6.10;;;2.47;;
2452;SDS011;63678;47.994;7.854;2023-04-24T11:23:03;4.72;;;2.70;;
2452;SDS011;63678;47.994;7.854;2023-04-24T11:25:36;6.57;;;2.83;;
2452;SDS011;63678;47.994;7.854;2023-04-24T11:28:09;4.90;;;2.50;;
2452;SDS011;63678;47.994;7.854;2023-04-24T11:30:48;5.18;;;2.30;;
2452;SDS011;63678;47.994;7.854;2023-04-24T11:33:22;4.65;;;2.40;;
2452;SDS011;63678;47.994;7.854;2023-04-24T11:35:55;5.47;;;2.47;;
2452;SDS011;63678;47.994;7.854;2023-04-24T11:38:28;8.20;;;2.30;;
2452;SDS011;63678;47.994;7.854;2023-04-24T11:41:01;5.00;;;2.42;;
2452;SDS011;63678;47.994;7.854;2023-04-24T11:43:34;4.93;;;2.50;;
2452;SDS011;63678;47.994;7.854;2023-04-24T11:46:08;7.10;;;2.20;;
2452;SDS011;63678;47.994;7.854;2023-04-24T11:48:44;6.07;;;2.55;;
2452;SDS011;63678;47.994;7.854;2023-04-24T11:51:17;3.83;;;2.20;;
2452;SDS011;63678;47.994;7.854;2023-04-24T11:53:50;6.75;;;3.15;;
2452;SDS011;63678;47.994;7.854;2023-04-24T11:56:35;8.67;;;2.63;;
2452;SDS011;63678;47.994;7.854;2023-04-24T11:59:07;5.38;;;2.70;;
2452;SDS011;63678;47.994;7.854;2023-04-24T12:01:46;8.40;;;2.63;;
2452;SDS011;63678;47.994;7.854;2023-04-24T12:04:19;5.43;;;2.60;;
2452;SDS011;63678;47.994;7.854;2023-04-24T12:06:59;4.18;;;2.10;;
2452;SDS011;63678;47.994;7.854;2023-04-24T12:09:41;5.47;;;2.55;;
2452;SDS011;63678;47.994;7.854;2023-04-24T12:12:24;7.28;;;2.70;;
2452;SDS011;63678;47.994;7.854;2023-04-24T12:14:58;6.03;;;2.10;;
2452;SDS011;63678;47.994;7.854;2023-04-24T12:17:52;5.00;;;2.70;;
2452;SDS011;63678;47.994;7.854;2023-04-24T12:20:30;6.05;;;2.30;;
2452;SDS011;63678;47.994;7.854;2023-04-24T12:23:04;4.77;;;2.63;;
2452;SDS011;63678;47.994;7.854;2023-04-24T12:25:59;7.38;;;2.70;;
2452;SDS011;63678;47.994;7.854;2023-04-24T12:28:36;4.60;;;2.55;;
2452;SDS011;63678;47.994;7.854;2023-04-24T12:31:11;5.43;;;2.47;;
2452;SDS011;63678;47.994;7.854;2023-04-24T12:33:44;5.45;;;2.60;;
2452;SDS011;63678;47.994;7.854;2023-04-24T12:36:20;8.55;;;3.13;;
2452;SDS011;63678;47.994;7.854;2023-04-24T12:38:53;5.57;;;2.97;;
2452;SDS011;63678;47.994;7.854;2023-04-24T12:41:26;5.28;;;2.65;;
2452;SDS011;63678;47.994;7.854;2023-04-24T12:44:03;8.40;;;3.17;;
2452;SDS011;63678;47.994;7.854;2023-04-24T12:46:36;4.85;;;2.58;;
2452;SDS011;63678;47.994;7.854;2023-04-24T12:49:09;5.20;;;3.00;;
2452;SDS011;63678;47.994;7.854;2023-04-24T12:51:42;6.97;;;3.05;;
2452;SDS011;63678;47.994;7.854;2023-04-24T12:54:14;5.43;;;2.78;;
2452;SDS011;63678;47.994;7.854;2023-04-24T12:56:47;4.85;;;2.10;;
2452;SDS011;63678;47.994;7.854;2023-04-24T12:59:20;5.05;;;2.22;;
2452;SDS011;63678;47.994;7.854;2023-04-24T13:01:52;10.10;;;2.70;;
2452;SDS011;63678;47.994;7.854;2023-04-24T13:04:25;5.57;;;3.13;;
2452;SDS011;63678;47.994;7.854;2023-04-24T13:06:58;5.15;;;2.75;;
2452;SDS011;63678;47.994;7.854;2023-04-24T13:09:31;4.60;;;2.50;;
2452;SDS011;63678;47.994;7.854;2023-04-24T13:12:06;7.03;;;2.67;;
2452;SDS011;63678;47.994;7.854;2023-04-24T13:14:40;7.30;;;3.40;;
2452;SDS011;63678;47.994;7.854;2023-04-24T13:17:12;8.23;;;3.00;;
2452;SDS011;63678;47.994;7.854;2023-04-24T13:19:46;5.82;;;2.53;;
2452;SDS011;63678;47.994;7.854;2023-04-24T13:22:18;6.28;;;2.53;;
2452;SDS011;63678;47.994;7.854;2023-04-24T13:24:52;6.47;;;2.92;;
2452;SDS011;63678;47.994;7.854;2023-04-24T13:27:25;5.83;;;2.60;;
2452;SDS011;63678;47.994;7.854;2023-04-24T13:29:58;4.60;;;2.50;;
2452;SDS011;63678;47.994;7.854;2023-04-24T13:32:32;7.35;;;2.40;;
2452;SDS011;63678;47.994;7.854;2023-04-24T13:35:07;6.10;;;2.30;;
2452;SDS011;63678;47.994;7.854;2023-04-24T13:38:01;5.20;;;3.00;;
2452;SDS011;63678;47.994;7.854;2023-04-24T13:40:58;7.20;;;2.50;;
2452;SDS011;63678;47.994;7.854;2023-04-24T13:43:51;5.32;;;2.67;;
2452;SDS011;63678;47.994;7.854;2023-04-24T13:46:24;7.13;;;2.90;;
2452;SDS011;63678;47.994;7.854;2023-04-24T13:48:56;4.72;;;3.00;;
2452;SDS011;63678;47.994;7.854;2023-04-24T13:51:29;6.68;;;3.17;;
2452;SDS011;63678;47.994;7.854;2023-04-24T13:54:02;8.13;;;2.70;;
2452;SDS011;63678;47.994;7.854;2023-04-24T13:56:34;4.53;;;2.75;;
2452;SDS011;63678;47.994;7.854;2023-04-24T13:59:07;6.00;;;2.70;;
2452;SDS011;63678;47.994;7.854;2023-04-24T14:01:40;7.07;;;3.13;;
2452;SDS011;63678;47.994;7.854;2023-04-24T14:04:13;6.40;;;2.95;;
2452;SDS011;63678;47.994;7.854;2023-04-24T14:06:47;6.90;;;3.40;;
2452;SDS011;63678;47.994;7.854;2023-04-24T14:09:20;6.47;;;2.90;;
2452;SDS011;63678;47.994;7.854;2023-04-24T14:11:52;4.65;;;2.42;;
2452;SDS011;63678;47.994;7.854;2023-04-24T14:14:25;5.65;;;2.90;;
2452;SDS011;63678;47.994;7.854;2023-04-24T14:16:58;4.78;;;2.65;;
2452;SDS011;63678;47.994;7.854;2023-04-24T14:19:31;5.38;;;2.90;;
2452;SDS011;63678;47.994;7.854;2023-04-24T14:22:04;4.85;;;2.83;;
2452;SDS011;63678;47.994;7.854;2023-04-24T14:24:37;8.48;;;2.67;;
2452;SDS011;63678;47.994;7.854;2023-04-24T14:27:12;7.32;;;3.08;;
2452;SDS011;63678;47.994;7.854;2023-04-24T14:29:45;5.43;;;2.83;;
2452;SDS011;63678;47.994;7.854;2023-04-24T14:32:17;4.60;;;2.53;;
2452;SDS011;63678;47.994;7.854;2023-04-24T14:34:50;5.25;;;2.60;;
2452;SDS011;63678;47.994;7.854;2023-04-24T14:37:22;4.47;;;2.30;;
2452;SDS011;63678;47.994;7.854;2023-04-24T14:39:55;5.05;;;2.45;;
2452;SDS011;63678;47.994;7.854;2023-04-24T14:42:50;4.88;;;2.65;;
2452;SDS011;63678;47.994;7.854;2023-04-24T14:45:22;5.55;;;2.67;;
2452;SDS011;63678;47.994;7.854;2023-04-24T14:47:56;6.78;;;2.75;;
2452;SDS011;63678;47.994;7.854;2023-04-24T14:50:29;6.60;;;2.78;;
2452;SDS011;63678;47.994;7.854;2023-04-24T14:53:02;5.90;;;3.15;;
2452;SDS011;63678;47.994;7.854;2023-04-24T14:55:35;6.03;;;2.70;;
2452;SDS011;63678;47.994;7.854;2023-04-24T14:58:08;6.65;;;2.50;;
2452;SDS011;63678;47.994;7.854;2023-04-24T15:00:41;6.43;;;2.92;;
2452;SDS011;63678;47.994;7.854;2023-04-24T15:03:14;6.82;;;3.03;;
2452;SDS011;63678;47.994;7.854;2023-04-24T15:05:50;5.10;;;3.05;;
2452;SDS011;63678;47.994;7.854;2023-04-24T15:08:23;6.47;;;2.90;;
2452;SDS011;63678;47.994;7.854;2023-04-24T15:10:56;6.18;;;2.95;;
2452;SDS011;63678;47.994;7.854;2023-04-24T15:13:29;6.45;;;2.80;;
2452;SDS011;63678;47.994;7.854;2023-04-24T15:16:01;7.22;;;3.20;;
2452;SDS011;63678;47.994;7.854;2023-04-24T15:18:34;7.10;;;3.10;;
2452;SDS011;63678;47.994;7.854;2023-04-24T15:21:07;6.90;;;3.22;;
2452;SDS011;63678;47.994;7.854;2023-04-24T15:23:39;7.43;;;3.08;;
2452;SDS011;63678;47.994;7.854;2023-04-24T15:26:12;5.22;;;3.42;;
2452;SDS011;63678;47.994;7.854;2023-04-24T15:28:45;4.97;;;2.75;;
2452;SDS011;63678;47.994;7.854;2023-04-24T15:31:18;6.50;;;3.10;;
2452;SDS011;63678;47.994;7.854;2023-04-24T15:33:51;6.65;;;3.45;;
2452;SDS011;63678;47.994;7.854;2023-04-24T15:36:23;4.93;;;3.10;;
2452;SDS011;63678;47.994;7.854;2023-04-24T15:38:56;5.57;;;3.45;;
2452;SDS011;63678;47.994;7.854;2023-04-24T15:41:29;5.40;;;2.90;;
2452;SDS011;63678;47.994;7.854;2023-04-24T15:44:04;5.70;;;3.28;;
2452;SDS011;63678;47.994;7.854;2023-04-24T15:46:37;9.00;;;3.30;;
2452;SDS011;63678;47.994;7.854;2023-04-24T15:49:09;7.90;;;3.60;;
2452;SDS011;63678;47.994;7.854;2023-04-24T15:52:02;6.53;;;3.67;;
2452;SDS011;63678;47.994;7.854;2023-04-24T15:54:37;6.70;;;3.45;;